Skip Navigation Links Skip Navigation Links

Current Weather

Chicago O'Hare Intl, Chicago

For information only: do not use for flight planning or navigation.
Latest weather
Observation time Friday, July 20, 2018 8:20 PM CDT
Local time Friday, July 20, 2018 8:40 PM CDT
Flight conditions Marginal Visual Meteorological Conditions
Winds
Wind direction West-Southwest (250°)
Wind speed 10 mph
Visibility 5 mi.
Present weather light rain
Sky condition
Ceiling 2,200 ft. broken clouds
Cloud layer scattered clouds 1,500 ft.
Cloud layer broken clouds 2,200 ft.
Cloud layer overcast 6,000 ft.
Temperature 71°F
Dewpoint 66°F
Altimeter 29.65 in.Hg
Precipitation
Rain began 8:17 PM
Precipitation last hour trace
Derived measurements
Relative humidity 84%
Density altitude 2057 ft.
Remarks
Special weather observation.
Automated weather observing station with precipitation discriminator.
METAR SPUS70 KWBC 210124 SPECI KORD 210120Z 25009KT 5SM -RA SCT015 BKN022 OVC060 22/19 A2965 RMK AO2 RAB17 P0000 T02170189

Settings

Location code

InnerDrive.Weather 4.0.6770.0 Release CLR 4.0.30319.42000
Copyright ©2018 Inner Drive Technology. All rights reserved. Portions Copyright ©1986-2018 David Braverman.

Find weather

Site navigation


Skip Navigation Links

Place info

Page info

PayPal - The safer, easier way to pay online!

Return home.

Copyright ©2018 Inner Drive Technology. Purveyors of fine, hand-crafted computer software. Page printed 2018-07-21T01:40:13 UTC.